createdAt,value
2022-08-14T00:02:03.658Z,99991.50
2022-08-14T00:04:45.120Z,99990.34
2022-08-14T00:07:14.125Z,99982.13
2022-08-14T00:10:02.024Z,99987.25
2022-08-14T00:12:39.332Z,99992.53
2022-08-14T00:15:11.921Z,99988.38
2022-08-14T00:17:48.140Z,99992.09
2022-08-14T00:20:30.271Z,99987.84
2022-08-14T00:23:08.258Z,99989.25
2022-08-14T00:25:43.242Z,99992.50
2022-08-14T00:28:26.553Z,99993.50
2022-08-14T00:31:00.303Z,100002.03
2022-08-14T00:33:39.342Z,100001.03
2022-08-14T00:36:39.519Z,100004.88
2022-08-14T00:39:06.592Z,100002.31
2022-08-14T00:41:38.877Z,100002.59
2022-08-14T00:44:06.909Z,100003.72
2022-08-14T00:46:37.160Z,99994.19
2022-08-14T00:49:06.091Z,99987.38
2022-08-14T00:51:38.195Z,99980.72
2022-08-14T00:54:16.881Z,99983.56
2022-08-14T00:56:50.556Z,99984.81
2022-08-14T00:59:17.868Z,99982.66
2022-08-14T01:01:46.176Z,99987.47
2022-08-14T01:04:37.170Z,99982.50
2022-08-14T01:07:04.951Z,99988.03
2022-08-14T01:09:37.710Z,99981.03
2022-08-14T01:12:08.447Z,99973.97
2022-08-14T01:14:35.723Z,99980.06
2022-08-14T01:17:04.072Z,99976.66
2022-08-14T01:19:49.891Z,99973.97
2022-08-14T01:22:21.014Z,99973.50
2022-08-14T01:24:54.358Z,99974.66
2022-08-14T01:27:24.356Z,99974.78
2022-08-14T01:30:03.133Z,99968.53
2022-08-14T01:32:37.390Z,99971.81
2022-08-14T01:35:20.998Z,99967.41
2022-08-14T01:37:58.687Z,99972.38
2022-08-14T01:40:36.237Z,99973.47
2022-08-14T01:43:18.931Z,99976.47
2022-08-14T01:46:06.493Z,99973.91
2022-08-14T01:48:37.004Z,99971.34
2022-08-14T01:51:19.286Z,99966.25
2022-08-14T01:53:54.728Z,99964.94
2022-08-14T01:56:37.549Z,99975.13
2022-08-14T01:59:06.818Z,99975.56
2022-08-14T02:01:38.138Z,99967.00
2022-08-14T02:04:40.950Z,99962.16
2022-08-14T02:06:57.870Z,99964.28
2022-08-14T02:09:25.928Z,99961.44
2022-08-14T02:11:54.813Z,99955.94
2022-08-14T02:14:31.777Z,99957.38
2022-08-14T02:17:00.745Z,99959.81
2022-08-14T02:19:32.330Z,99963.22
2022-08-14T02:22:02.993Z,99969.44
2022-08-14T02:24:39.971Z,99964.31
2022-08-14T02:28:25.653Z,99963.59
2022-08-14T02:30:01.279Z,99960.59
2022-08-14T02:32:36.128Z,99959.88
2022-08-14T02:35:17.527Z,99961.03
2022-08-14T02:37:49.838Z,99968.38
2022-08-14T02:40:19.685Z,99967.25
2022-08-14T02:42:55.350Z,99957.06
2022-08-14T02:45:38.511Z,99951.25
2022-08-14T02:49:02.102Z,99953.53
2022-08-14T02:51:02.735Z,99955.25
2022-08-14T02:53:31.282Z,99955.25
2022-08-14T02:56:02.456Z,99961.06
2022-08-14T02:58:33.912Z,99966.06
2022-08-14T03:01:05.142Z,99972.19
2022-08-14T03:03:38.789Z,99966.50
2022-08-14T03:06:09.027Z,99970.19
2022-08-14T03:08:39.336Z,99967.63
2022-08-14T03:11:13.787Z,99975.25
2022-08-14T03:13:47.489Z,99968.44
2022-08-14T03:16:20.371Z,99966.28
2022-08-14T03:19:00.350Z,99967.13
2022-08-14T03:21:31.024Z,99967.81
2022-08-14T03:24:16.573Z,99973.59
2022-08-14T03:26:57.492Z,99976.44
2022-08-14T03:29:26.441Z,99969.66
2022-08-14T03:31:53.681Z,99970.09
2022-08-14T03:34:24.876Z,99962.31
2022-08-14T03:37:51.893Z,99960.09
2022-08-14T03:40:00.488Z,99965.66
2022-08-14T03:42:35.695Z,99970.91
2022-08-14T03:45:27.317Z,99968.09
2022-08-14T03:47:58.302Z,99976.91
2022-08-14T03:50:30.716Z,99969.00
2022-08-14T03:53:02.991Z,99973.84
2022-08-14T03:55:30.933Z,99959.78
2022-08-14T03:58:00.555Z,99955.84
2022-08-14T04:00:44.243Z,99949.00
2022-08-14T04:03:16.730Z,99955.25
2022-08-14T04:05:48.848Z,99960.41
2022-08-14T04:08:29.068Z,99953.97
2022-08-14T04:11:01.150Z,99956.53
2022-08-14T04:13:34.180Z,99956.38
2022-08-14T04:16:12.443Z,99954.97
2022-08-14T04:18:47.237Z,99952.00
2022-08-14T04:21:16.537Z,99946.75
2022-08-14T04:23:45.770Z,99949.41
2022-08-14T04:26:42.276Z,99952.91
2022-08-14T04:29:15.604Z,99954.28
2022-08-14T04:33:01.947Z,99957.66
2022-08-14T04:34:35.257Z,99944.25
2022-08-14T04:37:24.713Z,99945.28
2022-08-14T04:40:13.008Z,99945.25
2022-08-14T04:43:01.744Z,99941.63
2022-08-14T04:45:37.368Z,99932.31
2022-08-14T04:48:39.558Z,99934.19
2022-08-14T04:51:09.271Z,99934.09
2022-08-14T04:53:48.278Z,99942.34
2022-08-14T04:56:33.619Z,99938.09
2022-08-14T04:59:10.086Z,99948.56
2022-08-14T05:01:49.101Z,99943.31
2022-08-14T05:04:22.860Z,99951.66
2022-08-14T05:06:55.398Z,99947.13
2022-08-14T05:09:30.558Z,99944.72
2022-08-14T05:12:00.634Z,99955.06
2022-08-14T05:14:55.208Z,99945.44
2022-08-14T05:17:32.005Z,99956.13
2022-08-14T05:21:54.860Z,99942.00
2022-08-14T05:23:03.292Z,99941.63
2022-08-14T05:25:34.290Z,99941.91
2022-08-14T05:28:20.477Z,99935.22
2022-08-14T05:31:14.502Z,99944.78
2022-08-14T05:33:54.951Z,99942.19
2022-08-14T05:36:27.204Z,99936.44
2022-08-14T05:38:56.392Z,99928.84
2022-08-14T05:41:53.447Z,99936.59
2022-08-14T05:44:21.493Z,99928.97
2022-08-14T05:46:49.059Z,99920.56
2022-08-14T05:49:16.731Z,99922.78
2022-08-14T05:51:46.961Z,99924.59
2022-08-14T05:54:26.778Z,99941.63
2022-08-14T06:02:41.930Z,99935.94
2022-08-14T06:05:09.939Z,99929.47
2022-08-14T06:07:39.220Z,99931.50
2022-08-14T06:10:10.569Z,99929.81
2022-08-14T06:12:56.648Z,99936.94
2022-08-14T06:15:30.508Z,99926.41
2022-08-14T06:18:00.812Z,99930.66
2022-08-14T06:23:12.590Z,99935.63
2022-08-14T06:25:42.497Z,99936.63
2022-08-14T06:28:28.221Z,99929.81
2022-08-14T06:30:59.640Z,99928.28
2022-08-14T06:33:30.050Z,99931.50
2022-08-14T06:36:39.246Z,99927.31
2022-08-14T06:39:10.086Z,99938.66
2022-08-14T06:41:58.452Z,99934.91
2022-08-14T06:44:30.318Z,99936.94
2022-08-14T06:47:18.122Z,99932.31
2022-08-14T06:49:54.576Z,99939.97
2022-08-14T06:52:54.307Z,99940.50
2022-08-14T06:55:27.646Z,99941.81
2022-08-14T06:57:55.397Z,99938.53
2022-08-14T07:00:27.144Z,99938.69
2022-08-14T07:03:16.161Z,99929.34
2022-08-14T07:05:55.936Z,99939.19
2022-08-14T07:08:40.284Z,99938.47
2022-08-14T07:11:11.609Z,99939.81
2022-08-14T07:13:40.217Z,99933.16
2022-08-14T07:16:13.828Z,99927.16
2022-08-14T07:18:41.911Z,99922.94
2022-08-14T07:21:10.094Z,99924.63
2022-08-14T07:23:40.210Z,99928.00
2022-08-14T07:26:13.433Z,99929.00
2022-08-14T07:28:46.777Z,99932.63
2022-08-14T07:31:16.270Z,99923.22
2022-08-14T07:33:50.051Z,99919.81
2022-08-14T07:36:27.715Z,99927.22
2022-08-14T07:39:00.302Z,99923.09
2022-08-14T07:41:33.989Z,99933.09
2022-08-14T07:44:29.121Z,99927.63
2022-08-14T07:46:52.105Z,99925.13
2022-08-14T07:49:27.123Z,99926.34
2022-08-14T07:51:55.196Z,99926.84
2022-08-14T07:54:30.316Z,99923.69
2022-08-14T07:57:25.004Z,99927.00
2022-08-14T08:00:04.188Z,99917.72
2022-08-14T08:02:46.209Z,99921.84
2022-08-14T08:05:17.038Z,99916.22
2022-08-14T08:07:46.905Z,99916.47
2022-08-14T08:11:02.294Z,99912.66
2022-08-14T08:13:22.309Z,99904.19
2022-08-14T08:15:55.418Z,99898.34
2022-08-14T08:18:27.490Z,99901.81
2022-08-14T08:20:59.353Z,99889.31
2022-08-14T08:23:40.216Z,99886.38
2022-08-14T08:26:11.101Z,99887.06
2022-08-14T08:28:38.284Z,99879.25
2022-08-14T08:31:13.602Z,99877.97
2022-08-14T08:33:48.142Z,99884.50
2022-08-14T08:36:18.845Z,99879.41
2022-08-14T08:39:17.337Z,99880.47
2022-08-14T08:41:49.355Z,99878.91
2022-08-14T08:44:31.593Z,99869.53
2022-08-14T08:47:06.693Z,99865.16
2022-08-14T08:50:00.405Z,99868.09
2022-08-14T08:52:31.867Z,99865.81
2022-08-14T08:55:04.926Z,99867.13
2022-08-14T08:57:37.129Z,99866.00
2022-08-14T09:00:27.163Z,99866.44
2022-08-14T09:02:57.671Z,99860.19
2022-08-14T09:05:29.096Z,99866.63
2022-08-14T09:08:30.357Z,99864.00
2022-08-14T09:10:59.465Z,99861.97
2022-08-14T09:13:27.873Z,99857.41
2022-08-14T09:15:57.891Z,99858.47
2022-08-14T09:18:27.443Z,99858.91
2022-08-14T09:20:58.663Z,99853.81
2022-08-14T09:23:34.565Z,99852.34
2022-08-14T09:26:05.173Z,99852.91
2022-08-14T09:28:49.885Z,99845.16
2022-08-14T09:31:19.098Z,99848.81
2022-08-14T09:33:57.550Z,99846.31
2022-08-14T09:36:35.364Z,99845.66
2022-08-14T09:39:31.676Z,99837.25
2022-08-14T09:42:33.098Z,99836.59
2022-08-14T09:45:16.674Z,99830.81
2022-08-14T09:47:57.313Z,99833.22
2022-08-14T09:50:33.907Z,99818.75
2022-08-14T09:53:17.808Z,99818.41
2022-08-14T09:55:59.631Z,99821.69
2022-08-14T09:58:38.353Z,99816.91
2022-08-14T10:01:10.940Z,99815.31
2022-08-14T10:03:48.957Z,99810.16
2022-08-14T10:06:28.113Z,99805.84
2022-08-14T10:09:02.772Z,99807.44
2022-08-14T10:11:58.925Z,99809.53
2022-08-14T10:14:35.762Z,99815.34
2022-08-14T10:17:07.082Z,99809.72
2022-08-14T10:19:48.531Z,99807.31
2022-08-14T10:23:12.842Z,99800.56
2022-08-14T10:25:15.408Z,99802.59
2022-08-14T10:27:46.766Z,99791.75
2022-08-14T10:30:22.653Z,99801.38
2022-08-14T10:32:55.467Z,99800.22
2022-08-14T10:35:31.017Z,99788.00
2022-08-14T10:38:01.378Z,99791.34
2022-08-14T10:40:37.606Z,99784.81
2022-08-14T10:43:23.324Z,99780.78
2022-08-14T10:46:05.326Z,99771.22
2022-08-14T10:49:06.884Z,99764.13
2022-08-14T10:51:42.157Z,99755.16
2022-08-14T10:54:26.122Z,99754.34
2022-08-14T10:57:10.541Z,99749.19
2022-08-14T10:59:54.585Z,99749.50
2022-08-14T11:02:44.932Z,99740.75
2022-08-14T11:05:23.642Z,99733.13
2022-08-14T11:07:57.000Z,99731.34
2022-08-14T11:10:42.938Z,99721.41
2022-08-14T11:13:15.367Z,99732.69
2022-08-14T11:15:48.497Z,99733.03
2022-08-14T11:18:36.244Z,99732.88
2022-08-14T11:21:09.742Z,99744.84
2022-08-14T11:23:44.470Z,99750.13
2022-08-14T11:26:16.491Z,99749.91
2022-08-14T11:28:48.322Z,99754.13
2022-08-14T11:31:25.992Z,99748.88
2022-08-14T11:34:29.649Z,99741.28
2022-08-14T11:37:09.482Z,99732.25
2022-08-14T11:39:45.539Z,99721.28
2022-08-14T11:42:57.913Z,99721.22
2022-08-14T11:45:23.529Z,99720.41
2022-08-14T11:48:13.620Z,99715.75
2022-08-14T11:50:42.170Z,99721.00
2022-08-14T11:53:28.826Z,99729.63
2022-08-14T11:56:05.494Z,99716.34
2022-08-14T11:58:36.569Z,99698.88
2022-08-14T12:01:28.574Z,99690.03
2022-08-14T12:04:01.168Z,99691.88
2022-08-14T12:06:49.172Z,99684.28
2022-08-14T12:09:42.855Z,99675.19
2022-08-14T12:12:36.275Z,99670.16
2022-08-14T12:15:13.136Z,99670.75
2022-08-14T12:17:55.785Z,99665.91
2022-08-14T12:20:37.464Z,99667.19
2022-08-14T12:23:26.045Z,99666.34
2022-08-14T12:26:40.015Z,99666.34
2022-08-14T12:29:08.437Z,99667.63
2022-08-14T12:31:44.564Z,99668.91
2022-08-14T12:34:20.574Z,99678.38
2022-08-14T12:36:50.571Z,99671.69
2022-08-14T12:39:25.776Z,99667.69
2022-08-14T12:42:06.395Z,99664.97
2022-08-14T12:44:35.197Z,99657.19
2022-08-14T12:47:30.998Z,99660.53
2022-08-14T12:49:58.554Z,99656.97
2022-08-14T12:52:43.006Z,99666.88
2022-08-14T12:55:21.609Z,99671.72
2022-08-14T12:57:53.136Z,99684.56
2022-08-14T13:00:28.593Z,99685.84
2022-08-14T13:02:56.859Z,99699.31
2022-08-14T13:05:27.478Z,99704.78
2022-08-14T13:08:06.008Z,99703.13
2022-08-14T13:10:58.406Z,99693.22
2022-08-14T13:13:34.920Z,99695.53
2022-08-14T13:16:20.453Z,99690.28
2022-08-14T13:18:58.556Z,99688.59
2022-08-14T13:21:27.335Z,99685.63
2022-08-14T13:23:58.602Z,99667.06
2022-08-14T13:26:28.229Z,99665.19
2022-08-14T13:29:02.162Z,99658.66
2022-08-14T13:31:34.441Z,99674.47
2022-08-14T13:34:04.696Z,99677.41
2022-08-14T13:36:51.515Z,99676.34
2022-08-14T13:39:25.388Z,99673.19
2022-08-14T13:41:56.112Z,99664.13
2022-08-14T13:44:27.163Z,99659.28
2022-08-14T13:46:54.191Z,99661.81
2022-08-14T13:49:24.026Z,99661.41
2022-08-14T13:51:53.339Z,99665.59
2022-08-14T13:54:21.297Z,99662.88
2022-08-14T13:56:49.787Z,99664.97
2022-08-14T13:59:20.682Z,99682.25
2022-08-14T14:02:05.694Z,99687.09
2022-08-14T14:04:41.002Z,99688.34
2022-08-14T14:07:14.754Z,99687.09
2022-08-14T14:09:52.470Z,99691.06
2022-08-14T14:12:37.745Z,99679.28
2022-08-14T14:15:09.605Z,99671.91
2022-08-14T14:17:38.983Z,99670.88
2022-08-14T14:20:34.170Z,99663.47
2022-08-14T14:23:02.148Z,99665.59
2022-08-14T14:25:45.636Z,99664.88
2022-08-14T14:28:23.987Z,99665.31
2022-08-14T14:30:56.968Z,99671.44
2022-08-14T14:33:50.112Z,99668.47
2022-08-14T14:36:26.835Z,99674.34
2022-08-14T14:47:59.393Z,99683.97
2022-08-14T14:50:53.792Z,99676.38
2022-08-14T14:53:22.613Z,99691.75
2022-08-14T14:56:48.410Z,99691.31
2022-08-14T14:58:48.949Z,99686.44
2022-08-14T15:04:38.369Z,99684.06
2022-08-14T15:07:08.075Z,99683.41
2022-08-14T15:09:38.986Z,99684.69
2022-08-14T15:12:27.942Z,99686.78
2022-08-14T15:17:44.300Z,99684.63
2022-08-14T15:20:29.850Z,99682.94
2022-08-14T15:23:22.206Z,99680.88
2022-08-14T15:28:48.996Z,99680.03
2022-08-14T15:31:37.062Z,99671.56
2022-08-14T15:34:44.381Z,99673.03
2022-08-14T15:37:04.878Z,99685.22
2022-08-14T15:39:35.727Z,99690.03
2022-08-14T15:42:14.808Z,99694.00
2022-08-14T15:44:57.527Z,99690.84
2022-08-14T15:47:33.118Z,99697.53
2022-08-14T15:50:13.604Z,99716.25
2022-08-14T15:52:43.070Z,99719.00
2022-08-14T15:55:15.791Z,99722.13
2022-08-14T15:58:01.836Z,99737.88
2022-08-14T16:01:00.430Z,99733.19
2022-08-14T16:03:36.461Z,99741.59
2022-08-14T16:06:17.413Z,99745.94
2022-08-14T16:08:58.683Z,99754.72
2022-08-14T16:11:33.142Z,99758.69
2022-08-14T16:14:01.105Z,99763.91
2022-08-14T16:16:51.337Z,99764.09
2022-08-14T16:19:44.014Z,99771.84
2022-08-14T16:23:10.554Z,99778.06
2022-08-14T16:25:03.883Z,99777.84
2022-08-14T16:27:39.679Z,99780.50
2022-08-14T16:30:24.434Z,99782.31
2022-08-14T16:32:56.774Z,99774.06
2022-08-14T16:35:42.489Z,99777.59
2022-08-14T16:38:29.355Z,99782.94
2022-08-14T16:41:23.005Z,99784.94
2022-08-14T16:44:04.665Z,99782.69
2022-08-14T16:46:52.859Z,99778.84
2022-08-14T16:50:02.508Z,99780.00
2022-08-14T16:52:26.296Z,99777.41
2022-08-14T16:55:09.898Z,99770.16
2022-08-14T16:57:58.848Z,99774.66
2022-08-14T17:00:29.445Z,99773.75
2022-08-14T17:03:01.930Z,99776.16
2022-08-14T17:05:29.340Z,99773.53
2022-08-14T17:08:28.280Z,99776.91
2022-08-14T17:10:51.577Z,99772.69
2022-08-14T17:13:27.344Z,99769.31
2022-08-14T17:16:24.645Z,99772.97
2022-08-14T17:19:02.824Z,99766.84
2022-08-14T17:21:37.637Z,99759.50
2022-08-14T17:24:56.588Z,99755.56
2022-08-14T17:26:58.425Z,99750.97
2022-08-14T17:29:34.172Z,99757.81
2022-08-14T17:32:22.362Z,99755.00
2022-08-14T17:34:57.827Z,99760.34
2022-08-14T17:37:37.890Z,99754.13
2022-08-14T17:40:14.995Z,99752.81
2022-08-14T17:42:51.457Z,99752.91
2022-08-14T17:45:46.891Z,99753.13
2022-08-14T17:49:10.857Z,99763.25
2022-08-14T17:51:23.359Z,99766.25
2022-08-14T17:54:01.396Z,99769.22
2022-08-14T17:56:38.690Z,99770.00
2022-08-14T17:59:07.587Z,99785.72
2022-08-14T18:01:40.854Z,99792.44
2022-08-14T18:04:25.017Z,99788.38
2022-08-14T18:07:59.524Z,99794.41
2022-08-14T18:10:51.735Z,99800.25
2022-08-14T18:13:05.082Z,99811.53
2022-08-14T18:15:37.905Z,99804.41
2022-08-14T18:18:11.807Z,99805.66
2022-08-14T18:21:24.144Z,99797.31
2022-08-14T18:23:28.494Z,99801.09
2022-08-14T18:25:57.272Z,99809.59
2022-08-14T18:28:48.293Z,99806.72
2022-08-14T18:31:22.806Z,99811.97
2022-08-14T18:33:56.571Z,99803.69
2022-08-14T18:36:52.776Z,99806.56
2022-08-14T18:39:28.341Z,99800.31
2022-08-14T18:42:23.865Z,99797.25
2022-08-14T18:44:52.657Z,99795.19
2022-08-14T18:47:25.706Z,99799.41
2022-08-14T18:50:27.024Z,99800.94
2022-08-14T18:52:54.440Z,99802.13
2022-08-14T18:55:34.180Z,99808.75
2022-08-14T18:58:01.328Z,99799.94
2022-08-14T19:00:33.785Z,99798.41
2022-08-14T19:03:03.261Z,99786.00
2022-08-14T19:05:47.746Z,99788.91
2022-08-14T19:08:27.181Z,99777.38
2022-08-14T19:11:00.818Z,99771.75
2022-08-14T19:13:48.980Z,99769.88
2022-08-14T19:16:26.125Z,99770.75
2022-08-14T19:19:03.119Z,99761.22
2022-08-14T19:21:35.044Z,99769.53
2022-08-14T19:24:27.139Z,99770.34
2022-08-14T19:27:16.705Z,99760.16
2022-08-14T19:29:51.372Z,99772.34
2022-08-14T19:32:40.491Z,99775.38
2022-08-14T19:35:18.597Z,99776.56
2022-08-14T19:38:07.980Z,99764.16
2022-08-14T19:41:29.492Z,99762.13
2022-08-14T19:44:20.114Z,99768.56
2022-08-14T19:47:04.793Z,99782.97
2022-08-14T19:50:08.189Z,99784.66
2022-08-14T19:52:37.287Z,99794.16
2022-08-14T19:55:18.067Z,99801.66
2022-08-14T19:57:52.294Z,99785.69
2022-08-14T20:00:30.326Z,99804.19
2022-08-14T20:03:12.047Z,99822.66
2022-08-14T20:05:43.054Z,99823.34
2022-08-14T20:10:58.708Z,99828.75
2022-08-14T20:11:14.986Z,99829.44
2022-08-14T20:14:10.537Z,99820.13
2022-08-14T20:16:40.900Z,99825.91
2022-08-14T20:19:17.738Z,99808.78
2022-08-14T20:21:58.018Z,99801.31
2022-08-14T20:24:41.281Z,99794.44
2022-08-14T20:27:34.151Z,99812.56
2022-08-14T20:33:07.992Z,99799.28
2022-08-14T20:35:49.404Z,99796.78
2022-08-14T20:38:30.364Z,99793.88
2022-08-14T20:40:59.249Z,99800.31
2022-08-14T20:43:51.239Z,99791.50
2022-08-14T20:46:29.859Z,99801.66
2022-08-14T20:49:06.350Z,99785.72
2022-08-14T20:51:43.535Z,99801.97
2022-08-14T20:54:22.061Z,99804.00
2022-08-14T20:57:09.958Z,99806.03
2022-08-14T20:59:43.541Z,99801.50
2022-08-14T21:02:34.569Z,99808.06
2022-08-14T21:05:16.868Z,99808.41
2022-08-14T21:07:50.452Z,99806.69
2022-08-14T21:10:33.208Z,99801.63
2022-08-14T21:14:18.688Z,99786.50
2022-08-14T21:15:56.667Z,99783.13
2022-08-14T21:18:32.048Z,99779.91
2022-08-14T21:21:06.949Z,99768.88
2022-08-14T21:23:53.802Z,99764.63
2022-08-14T21:26:51.025Z,99768.69
2022-08-14T21:29:12.018Z,99774.94
2022-08-14T21:31:41.714Z,99774.25
2022-08-14T21:34:27.145Z,99765.78
2022-08-14T21:37:08.988Z,99770.31
2022-08-14T21:39:38.384Z,99756.25
2022-08-14T21:42:06.546Z,99754.41
2022-08-14T21:44:43.901Z,99766.72
2022-08-14T21:47:16.628Z,99781.63
2022-08-14T21:49:46.161Z,99779.41
2022-08-14T21:52:52.225Z,99771.03
2022-08-14T21:55:10.363Z,99782.34
2022-08-14T21:58:38.393Z,99775.00
2022-08-14T22:00:39.635Z,99773.94
2022-08-14T22:03:17.387Z,99764.13
2022-08-14T22:05:48.486Z,99762.41
2022-08-14T22:08:17.734Z,99759.38
2022-08-14T22:10:51.398Z,99752.03
2022-08-14T22:13:22.679Z,99749.97
2022-08-14T22:15:54.333Z,99745.53
2022-08-14T22:18:25.807Z,99734.38
2022-08-14T22:20:56.416Z,99741.78
2022-08-14T22:23:24.893Z,99740.41
2022-08-14T22:25:53.714Z,99734.47
2022-08-14T22:28:32.737Z,99737.31
2022-08-14T22:31:10.198Z,99733.91
2022-08-14T22:33:39.071Z,99733.06
2022-08-14T22:36:27.567Z,99734.41
2022-08-14T22:39:01.705Z,99727.63
2022-08-14T22:41:36.935Z,99724.22
2022-08-14T22:44:15.995Z,99722.50
2022-08-14T22:46:45.111Z,99720.63
2022-08-14T22:49:15.532Z,99724.38
2022-08-14T22:52:31.785Z,99718.56
2022-08-14T22:54:55.081Z,99719.84
2022-08-14T22:57:22.638Z,99715.75
2022-08-14T22:59:50.233Z,99719.63
2022-08-14T23:02:36.310Z,99721.81
2022-08-14T23:05:07.808Z,99735.31
2022-08-14T23:08:56.912Z,99728.38
2022-08-14T23:10:31.697Z,99727.84
2022-08-14T23:13:02.983Z,99727.16
2022-08-14T23:15:30.655Z,99717.50
2022-08-14T23:17:58.109Z,99722.06
2022-08-14T23:20:29.745Z,99727.28
2022-08-14T23:22:57.964Z,99715.63
2022-08-14T23:25:57.611Z,99718.50
2022-08-14T23:28:33.719Z,99722.34
2022-08-14T23:31:09.960Z,99727.91
2022-08-14T23:33:45.721Z,99727.06
2022-08-14T23:36:31.426Z,99726.09
2022-08-14T23:39:00.408Z,99724.53
2022-08-14T23:41:27.516Z,99722.13
2022-08-14T23:44:15.328Z,99719.59
2022-08-14T23:46:44.108Z,99726.16
2022-08-14T23:49:12.572Z,99724.59
2022-08-14T23:51:39.905Z,99728.31
2022-08-14T23:54:48.995Z,99737.25
2022-08-14T23:56:59.963Z,99736.09
2022-08-14T23:59:30.316Z,99740.66
